CGR01 SEQM-SCIE
Flight info
| Callsign | CGR01 |
|---|---|
| Flight time | N/A |
| Altitude | 41000 |
| Route | KETOM3B KETOM UM674 ATATU UL308 JCL UL302 TOY UT105 UPUSI UT104 ESIDO DCT |
| Aircraft | B739/M-SDE2E3FGHIRWXY/LB1 |
Departure
| Time | N/A |
|---|---|
| Airport | Mariscal Sucre International Airport (SEQM) |
Arrival
| Time | 2026-04-25 04:03 |
|---|---|
| Airport | Carriel Sur International Airport (SCIE) |
| Time | Latitude | Longitude | Altitude | Speed | Heading |
|---|---|---|---|---|---|
| 2026-04-24 23:35 | -4.16097 | -78.30898 | 37968 ft | 460 kts | 175° |
| 2026-04-24 23:35 | -4.22489 | -78.30587 | 37972 ft | 459 kts | 175° |
| 2026-04-24 23:36 | -4.28842 | -78.30279 | 37957 ft | 459 kts | 175° |
| 2026-04-24 23:36 | -4.35217 | -78.29969 | 37954 ft | 459 kts | 175° |
| 2026-04-24 23:37 | -4.41605 | -78.29658 | 37952 ft | 459 kts | 174° |
| 2026-04-24 23:37 | -4.51008 | -78.28129 | 37984 ft | 458 kts | 165° |
| 2026-04-24 23:38 | -4.54133 | -78.27434 | 38186 ft | 458 kts | 165° |
| 2026-04-24 23:38 | -4.57235 | -78.26748 | 38530 ft | 455 kts | 165° |
| 2026-04-24 23:38 | -4.60319 | -78.26083 | 38772 ft | 453 kts | 166° |
| 2026-04-24 23:38 | -4.63400 | -78.25436 | 38915 ft | 452 kts | 166° |
| 2026-04-24 23:39 | -4.69568 | -78.24174 | 38933 ft | 456 kts | 166° |
| 2026-04-24 23:39 | -4.75780 | -78.22922 | 38937 ft | 455 kts | 167° |
| 2026-04-24 23:40 | -4.81981 | -78.21675 | 38937 ft | 454 kts | 167° |
| 2026-04-24 23:40 | -4.88179 | -78.20426 | 38929 ft | 453 kts | 167° |
| 2026-04-24 23:41 | -4.94363 | -78.19178 | 38938 ft | 451 kts | 166° |
| 2026-04-24 23:41 | -5.00480 | -78.17943 | 38933 ft | 450 kts | 167° |
| 2026-04-24 23:42 | -5.06627 | -78.16702 | 38946 ft | 451 kts | 167° |
| 2026-04-24 23:42 | -5.11783 | -78.15660 | 38946 ft | 451 kts | 167° |
| 2026-04-24 23:43 | -5.18932 | -78.14216 | 38960 ft | 452 kts | 167° |
| 2026-04-24 23:43 | -5.25118 | -78.12966 | 38980 ft | 453 kts | 167° |
| 2026-04-24 23:44 | -5.31308 | -78.11715 | 38983 ft | 455 kts | 167° |
| 2026-04-24 23:44 | -5.37514 | -78.10461 | 38980 ft | 456 kts | 167° |
| 2026-04-24 23:45 | -5.43713 | -78.09208 | 38993 ft | 457 kts | 167° |
| 2026-04-24 23:45 | -5.49948 | -78.07947 | 39007 ft | 456 kts | 167° |
| 2026-04-24 23:46 | -5.56180 | -78.06687 | 39016 ft | 457 kts | 167° |
| 2026-04-24 23:46 | -5.62411 | -78.05426 | 39025 ft | 457 kts | 167° |
| 2026-04-24 23:47 | -5.68616 | -78.04171 | 39027 ft | 457 kts | 167° |
| 2026-04-24 23:47 | -5.74848 | -78.02910 | 39034 ft | 457 kts | 167° |
| 2026-04-24 23:48 | -5.81087 | -78.01647 | 39044 ft | 456 kts | 167° |
| 2026-04-24 23:48 | -5.87280 | -78.00393 | 39039 ft | 456 kts | 167° |
| 2026-04-24 23:49 | -5.93499 | -77.99133 | 39052 ft | 455 kts | 167° |
| 2026-04-24 23:49 | -5.99729 | -77.97871 | 39045 ft | 456 kts | 167° |
| 2026-04-24 23:50 | -6.05942 | -77.96611 | 39052 ft | 454 kts | 167° |
| 2026-04-24 23:50 | -6.12137 | -77.95353 | 39066 ft | 453 kts | 167° |
| 2026-04-24 23:51 | -6.18300 | -77.94105 | 39061 ft | 454 kts | 167° |
| 2026-04-24 23:51 | -6.24512 | -77.92845 | 39066 ft | 455 kts | 167° |
| 2026-04-24 23:52 | -6.30724 | -77.91585 | 39060 ft | 456 kts | 167° |
| 2026-04-24 23:52 | -6.36918 | -77.90327 | 39061 ft | 456 kts | 167° |
| 2026-04-24 23:53 | -6.43150 | -77.89060 | 39060 ft | 457 kts | 166° |
| 2026-04-24 23:53 | -6.49391 | -77.87791 | 39048 ft | 457 kts | 166° |
| 2026-04-24 23:54 | -6.55648 | -77.86515 | 39044 ft | 457 kts | 166° |
| 2026-04-24 23:54 | -6.60829 | -77.85461 | 39034 ft | 457 kts | 166° |
| 2026-04-24 23:55 | -6.68072 | -77.83999 | 39038 ft | 456 kts | 166° |
| 2026-04-24 23:55 | -6.73252 | -77.82959 | 39034 ft | 455 kts | 166° |
| 2026-04-24 23:56 | -6.79461 | -77.81707 | 39035 ft | 454 kts | 166° |
| 2026-04-24 23:56 | -6.85660 | -77.80452 | 39028 ft | 453 kts | 166° |
| 2026-04-24 23:57 | -6.91808 | -77.79206 | 39035 ft | 453 kts | 166° |
| 2026-04-24 23:57 | -6.97990 | -77.77952 | 39032 ft | 453 kts | 166° |
| 2026-04-24 23:58 | -7.04187 | -77.76695 | 39019 ft | 453 kts | 165° |
| 2026-04-24 23:58 | -7.10366 | -77.75442 | 39029 ft | 453 kts | 165° |
| 2026-04-24 23:59 | -7.16548 | -77.74186 | 39035 ft | 453 kts | 165° |
| 2026-04-24 23:59 | -7.22732 | -77.72931 | 39010 ft | 454 kts | 165° |
| 2026-04-25 00:00 | -7.28890 | -77.71681 | 39023 ft | 454 kts | 166° |
| 2026-04-25 00:00 | -7.35088 | -77.70419 | 39024 ft | 454 kts | 165° |
| 2026-04-25 00:01 | -7.41283 | -77.69156 | 39026 ft | 454 kts | 165° |
| 2026-04-25 00:01 | -7.47479 | -77.67894 | 39031 ft | 455 kts | 165° |
| 2026-04-25 00:02 | -7.53704 | -77.66632 | 39037 ft | 456 kts | 166° |
| 2026-04-25 00:02 | -7.59892 | -77.65384 | 39039 ft | 457 kts | 165° |
| 2026-04-25 00:03 | -7.66122 | -77.64121 | 39046 ft | 457 kts | 166° |
| 2026-04-25 00:03 | -7.72353 | -77.62855 | 39045 ft | 457 kts | 165° |
| 2026-04-25 00:04 | -7.78588 | -77.61585 | 39060 ft | 456 kts | 165° |
| 2026-04-25 00:04 | -7.84795 | -77.60319 | 39063 ft | 454 kts | 165° |
| 2026-04-25 00:05 | -7.90964 | -77.59061 | 39088 ft | 452 kts | 165° |
| 2026-04-25 00:05 | -7.97148 | -77.57796 | 39088 ft | 453 kts | 165° |
| 2026-04-25 00:06 | -8.03342 | -77.56532 | 39105 ft | 454 kts | 165° |
| 2026-04-25 00:06 | -8.09554 | -77.55272 | 39105 ft | 456 kts | 165° |
| 2026-04-25 00:07 | -8.15748 | -77.54022 | 39116 ft | 457 kts | 165° |
| 2026-04-25 00:07 | -8.22002 | -77.52752 | 39132 ft | 456 kts | 165° |
| 2026-04-25 00:08 | -8.28192 | -77.51491 | 39129 ft | 455 kts | 165° |
| 2026-04-25 00:08 | -8.34414 | -77.50221 | 39124 ft | 457 kts | 165° |
| 2026-04-25 00:09 | -8.40676 | -77.48943 | 39129 ft | 459 kts | 165° |
| 2026-04-25 00:09 | -8.46962 | -77.47659 | 39128 ft | 461 kts | 165° |
| 2026-04-25 00:10 | -8.53220 | -77.46381 | 39130 ft | 462 kts | 165° |
| 2026-04-25 00:10 | -8.59533 | -77.45093 | 39131 ft | 462 kts | 165° |
| 2026-04-25 00:11 | -8.65849 | -77.43801 | 39135 ft | 464 kts | 165° |
| 2026-04-25 00:11 | -8.72171 | -77.42510 | 39137 ft | 464 kts | 165° |
| 2026-04-25 00:12 | -8.78506 | -77.41215 | 39149 ft | 463 kts | 165° |
| 2026-04-25 00:12 | -8.84778 | -77.39932 | 39151 ft | 462 kts | 165° |
| 2026-04-25 00:13 | -8.91075 | -77.38644 | 39168 ft | 461 kts | 165° |
| 2026-04-25 00:13 | -8.97367 | -77.37356 | 39182 ft | 461 kts | 166° |
| 2026-04-25 00:14 | -9.03652 | -77.36069 | 39174 ft | 461 kts | 166° |
| 2026-04-25 00:14 | -9.09876 | -77.34794 | 39188 ft | 458 kts | 166° |
| 2026-04-25 00:15 | -9.16127 | -77.33514 | 39193 ft | 458 kts | 166° |
| 2026-04-25 00:15 | -9.22381 | -77.32226 | 39205 ft | 458 kts | 166° |
| 2026-04-25 00:16 | -9.28625 | -77.30945 | 39213 ft | 460 kts | 166° |
| 2026-04-25 00:16 | -9.34915 | -77.29659 | 39200 ft | 461 kts | 165° |
| 2026-04-25 00:17 | -9.41203 | -77.28370 | 39237 ft | 461 kts | 166° |
| 2026-04-25 00:17 | -9.47508 | -77.27075 | 39229 ft | 462 kts | 166° |
| 2026-04-25 00:18 | -9.53816 | -77.25778 | 39228 ft | 462 kts | 166° |
| 2026-04-25 00:18 | -9.60131 | -77.24481 | 39235 ft | 462 kts | 166° |
| 2026-04-25 00:19 | -9.66397 | -77.23192 | 39240 ft | 462 kts | 166° |
| 2026-04-25 00:19 | -9.72716 | -77.21892 | 39241 ft | 464 kts | 166° |
| 2026-04-25 00:20 | -9.79049 | -77.20588 | 39266 ft | 464 kts | 166° |
| 2026-04-25 00:20 | -9.85395 | -77.19280 | 39235 ft | 465 kts | 166° |
| 2026-04-25 00:21 | -9.91729 | -77.17973 | 39243 ft | 463 kts | 166° |
| 2026-04-25 00:21 | -9.98054 | -77.16665 | 39236 ft | 464 kts | 166° |
| 2026-04-25 00:22 | -10.04376 | -77.15362 | 39238 ft | 464 kts | 166° |
| 2026-04-25 00:22 | -10.10708 | -77.14068 | 39227 ft | 464 kts | 166° |
| 2026-04-25 00:23 | -10.17029 | -77.12771 | 39232 ft | 464 kts | 166° |
| 2026-04-25 00:23 | -10.23329 | -77.11476 | 39226 ft | 465 kts | 166° |
| 2026-04-25 00:24 | -10.29665 | -77.10169 | 39244 ft | 463 kts | 166° |
| 2026-04-25 00:24 | -10.36005 | -77.08860 | 39223 ft | 463 kts | 166° |
| 2026-04-25 00:25 | -10.42338 | -77.07552 | 39214 ft | 464 kts | 166° |
| 2026-04-25 00:25 | -10.48637 | -77.06250 | 39205 ft | 465 kts | 166° |
| 2026-04-25 00:26 | -10.54960 | -77.04943 | 39209 ft | 462 kts | 166° |
| 2026-04-25 00:26 | -10.61280 | -77.03636 | 39197 ft | 464 kts | 166° |
| 2026-04-25 00:27 | -10.67627 | -77.02323 | 39196 ft | 466 kts | 166° |
| 2026-04-25 00:27 | -10.73961 | -77.01010 | 39180 ft | 464 kts | 166° |
| 2026-04-25 00:28 | -10.80259 | -76.99706 | 39179 ft | 465 kts | 166° |
| 2026-04-25 00:28 | -10.86618 | -76.98388 | 39173 ft | 467 kts | 166° |
| 2026-04-25 00:29 | -10.93001 | -76.97064 | 39167 ft | 468 kts | 166° |
| 2026-04-25 00:29 | -10.99404 | -76.95734 | 39149 ft | 469 kts | 166° |
| 2026-04-25 00:30 | -11.05752 | -76.94413 | 39121 ft | 468 kts | 166° |
| 2026-04-25 00:30 | -11.12136 | -76.93085 | 39139 ft | 466 kts | 166° |
| 2026-04-25 00:31 | -11.18469 | -76.91776 | 39112 ft | 466 kts | 166° |
| 2026-04-25 00:31 | -11.24816 | -76.90469 | 39106 ft | 465 kts | 166° |
| 2026-04-25 00:32 | -11.31151 | -76.89158 | 39094 ft | 464 kts | 166° |
| 2026-04-25 00:32 | -11.37478 | -76.87842 | 39102 ft | 464 kts | 166° |
| 2026-04-25 00:33 | -11.43781 | -76.86529 | 39096 ft | 465 kts | 166° |
| 2026-04-25 00:33 | -11.50135 | -76.85206 | 39094 ft | 465 kts | 166° |
| 2026-04-25 00:34 | -11.56492 | -76.83883 | 39077 ft | 465 kts | 166° |
| 2026-04-25 00:34 | -11.62792 | -76.82571 | 39084 ft | 465 kts | 166° |
| 2026-04-25 00:35 | -11.69139 | -76.81248 | 39076 ft | 465 kts | 166° |
| 2026-04-25 00:35 | -11.75481 | -76.79924 | 39074 ft | 465 kts | 166° |
| 2026-04-25 00:36 | -11.81823 | -76.78600 | 39080 ft | 465 kts | 166° |
| 2026-04-25 00:36 | -11.88173 | -76.77270 | 39066 ft | 466 kts | 166° |
| 2026-04-25 00:37 | -11.94572 | -76.75930 | 39057 ft | 468 kts | 166° |
| 2026-04-25 00:37 | -12.00958 | -76.74601 | 39057 ft | 469 kts | 166° |
| 2026-04-25 00:38 | -12.07333 | -76.73280 | 39046 ft | 471 kts | 166° |
| 2026-04-25 00:38 | -12.13770 | -76.71941 | 39044 ft | 471 kts | 166° |
| 2026-04-25 00:39 | -12.20202 | -76.70598 | 39035 ft | 472 kts | 166° |
| 2026-04-25 00:39 | -12.26638 | -76.69252 | 39040 ft | 471 kts | 166° |
| 2026-04-25 00:40 | -12.33062 | -76.67907 | 39037 ft | 471 kts | 166° |
| 2026-04-25 00:40 | -12.39475 | -76.66564 | 39029 ft | 470 kts | 166° |
| 2026-04-25 00:41 | -12.45840 | -76.65231 | 39035 ft | 468 kts | 166° |
| 2026-04-25 00:41 | -12.52229 | -76.63892 | 39023 ft | 468 kts | 166° |
| 2026-04-25 00:42 | -12.58604 | -76.62555 | 39025 ft | 467 kts | 166° |
| 2026-04-25 00:42 | -12.63901 | -76.61443 | 39026 ft | 467 kts | 166° |
| 2026-04-25 00:43 | -12.70265 | -76.60107 | 39017 ft | 467 kts | 166° |
| 2026-04-25 00:43 | -12.76664 | -76.58763 | 39024 ft | 466 kts | 166° |
| 2026-04-25 00:44 | -12.82985 | -76.57435 | 39013 ft | 467 kts | 166° |
| 2026-04-25 00:44 | -12.89354 | -76.56095 | 39015 ft | 467 kts | 166° |
| 2026-04-25 00:45 | -12.95692 | -76.54762 | 39013 ft | 467 kts | 166° |
| 2026-04-25 00:45 | -13.02103 | -76.53413 | 39009 ft | 468 kts | 166° |
| 2026-04-25 00:46 | -13.08451 | -76.52076 | 39007 ft | 468 kts | 166° |
| 2026-04-25 00:47 | -13.18046 | -76.50054 | 39004 ft | 469 kts | 166° |
| 2026-04-25 00:47 | -13.24449 | -76.48703 | 39005 ft | 470 kts | 166° |
| 2026-04-25 00:48 | -13.30865 | -76.47350 | 39003 ft | 471 kts | 166° |
| 2026-04-25 00:48 | -13.37260 | -76.45999 | 39002 ft | 471 kts | 166° |
| 2026-04-25 00:49 | -13.43694 | -76.44640 | 39003 ft | 472 kts | 166° |
| 2026-04-25 00:49 | -13.50131 | -76.43280 | 38999 ft | 473 kts | 166° |
| 2026-04-25 00:50 | -13.56592 | -76.41913 | 39001 ft | 473 kts | 166° |
| 2026-04-25 00:50 | -13.63042 | -76.40549 | 38996 ft | 473 kts | 166° |
| 2026-04-25 00:51 | -13.69458 | -76.39190 | 38997 ft | 473 kts | 166° |
| 2026-04-25 00:51 | -13.75914 | -76.37822 | 38994 ft | 473 kts | 166° |
| 2026-04-25 00:52 | -13.82366 | -76.36454 | 38991 ft | 473 kts | 166° |
| 2026-04-25 00:52 | -13.88824 | -76.35084 | 39002 ft | 473 kts | 166° |
| 2026-04-25 00:53 | -13.95277 | -76.33713 | 38996 ft | 473 kts | 166° |
| 2026-04-25 00:53 | -14.01728 | -76.32342 | 39003 ft | 473 kts | 166° |
| 2026-04-25 00:54 | -14.08173 | -76.30971 | 39005 ft | 472 kts | 166° |
| 2026-04-25 00:54 | -14.14573 | -76.29605 | 39001 ft | 472 kts | 166° |
| 2026-04-25 00:55 | -14.21008 | -76.28233 | 39002 ft | 472 kts | 166° |
| 2026-04-25 00:55 | -14.27444 | -76.26868 | 39005 ft | 472 kts | 166° |
| 2026-04-25 00:56 | -14.33881 | -76.25511 | 39006 ft | 471 kts | 166° |
| 2026-04-25 00:56 | -14.40315 | -76.24147 | 39007 ft | 471 kts | 166° |
| 2026-04-25 00:57 | -14.46706 | -76.22787 | 39004 ft | 472 kts | 166° |
| 2026-04-25 00:57 | -14.53138 | -76.21415 | 39009 ft | 472 kts | 166° |
| 2026-04-25 00:58 | -14.59583 | -76.20039 | 39008 ft | 472 kts | 166° |
| 2026-04-25 00:58 | -14.65980 | -76.18673 | 39010 ft | 472 kts | 166° |
| 2026-04-25 00:59 | -14.72425 | -76.17296 | 39011 ft | 473 kts | 166° |
| 2026-04-25 00:59 | -14.78880 | -76.15916 | 39007 ft | 474 kts | 166° |
| 2026-04-25 01:00 | -14.85351 | -76.14532 | 39010 ft | 474 kts | 166° |
| 2026-04-25 01:00 | -14.91824 | -76.13147 | 39005 ft | 475 kts | 167° |
| 2026-04-25 01:01 | -14.98314 | -76.11757 | 39013 ft | 476 kts | 166° |
| 2026-04-25 01:01 | -15.04808 | -76.10365 | 39023 ft | 477 kts | 166° |
| 2026-04-25 01:02 | -15.11314 | -76.08970 | 39017 ft | 478 kts | 167° |
| 2026-04-25 01:02 | -15.17785 | -76.07582 | 39015 ft | 478 kts | 167° |
| 2026-04-25 01:03 | -15.24306 | -76.06182 | 39017 ft | 479 kts | 167° |
| 2026-04-25 01:03 | -15.30839 | -76.04779 | 39016 ft | 479 kts | 167° |
| 2026-04-25 01:04 | -15.37368 | -76.03375 | 39019 ft | 479 kts | 167° |
| 2026-04-25 01:04 | -15.43904 | -76.01969 | 39019 ft | 479 kts | 167° |
| 2026-04-25 01:05 | -15.50411 | -76.00569 | 39020 ft | 480 kts | 167° |
| 2026-04-25 01:05 | -15.56942 | -75.99162 | 39022 ft | 480 kts | 167° |
| 2026-04-25 01:06 | -15.63492 | -75.97751 | 39022 ft | 480 kts | 167° |
| 2026-04-25 01:06 | -15.70034 | -75.96340 | 39025 ft | 480 kts | 167° |
| 2026-04-25 01:07 | -15.76551 | -75.94934 | 39028 ft | 481 kts | 167° |
| 2026-04-25 01:07 | -15.83107 | -75.93518 | 39029 ft | 481 kts | 167° |
| 2026-04-25 01:08 | -15.89675 | -75.92099 | 39032 ft | 481 kts | 167° |
| 2026-04-25 01:08 | -15.96198 | -75.90688 | 39035 ft | 481 kts | 167° |
| 2026-04-25 01:09 | -16.02782 | -75.89264 | 39031 ft | 482 kts | 167° |
| 2026-04-25 01:09 | -16.09350 | -75.87841 | 39034 ft | 482 kts | 167° |
| 2026-04-25 01:10 | -16.15918 | -75.86418 | 39030 ft | 482 kts | 167° |
| 2026-04-25 01:10 | -16.22491 | -75.84993 | 39041 ft | 482 kts | 167° |
| 2026-04-25 01:11 | -16.29026 | -75.83575 | 39038 ft | 482 kts | 167° |
| 2026-04-25 01:11 | -16.35603 | -75.82147 | 39037 ft | 482 kts | 167° |
| 2026-04-25 01:12 | -16.42182 | -75.80718 | 39039 ft | 482 kts | 167° |
| 2026-04-25 01:12 | -16.48724 | -75.79296 | 39038 ft | 482 kts | 167° |
| 2026-04-25 01:13 | -16.55303 | -75.77864 | 39043 ft | 482 kts | 167° |
| 2026-04-25 01:13 | -16.61873 | -75.76434 | 39047 ft | 482 kts | 167° |
| 2026-04-25 01:14 | -16.68431 | -75.75005 | 39047 ft | 482 kts | 167° |
| 2026-04-25 01:14 | -16.74980 | -75.73577 | 39047 ft | 482 kts | 167° |
| 2026-04-25 01:15 | -16.81548 | -75.72145 | 39049 ft | 481 kts | 167° |
| 2026-04-25 01:15 | -16.88068 | -75.70721 | 39053 ft | 481 kts | 167° |
| 2026-04-25 01:16 | -16.94619 | -75.69290 | 39053 ft | 481 kts | 167° |
| 2026-04-25 01:16 | -17.01169 | -75.67858 | 39050 ft | 481 kts | 167° |
| 2026-04-25 01:17 | -17.07721 | -75.66424 | 39058 ft | 481 kts | 167° |
| 2026-04-25 01:17 | -17.14240 | -75.64997 | 39058 ft | 480 kts | 167° |
| 2026-04-25 01:18 | -17.20792 | -75.63561 | 39061 ft | 481 kts | 167° |
| 2026-04-25 01:18 | -17.27333 | -75.62126 | 39063 ft | 481 kts | 167° |
| 2026-04-25 01:19 | -17.33884 | -75.60689 | 39064 ft | 481 kts | 167° |
| 2026-04-25 01:19 | -17.40458 | -75.59245 | 39063 ft | 481 kts | 168° |
| 2026-04-25 01:20 | -17.47008 | -75.57805 | 39066 ft | 481 kts | 168° |
| 2026-04-25 01:20 | -17.53526 | -75.56372 | 39066 ft | 481 kts | 168° |
| 2026-04-25 01:21 | -17.60090 | -75.54927 | 39069 ft | 482 kts | 168° |
| 2026-04-25 01:21 | -17.66662 | -75.53479 | 39074 ft | 482 kts | 168° |
| 2026-04-25 01:22 | -17.73232 | -75.52031 | 39073 ft | 482 kts | 168° |
| 2026-04-25 01:22 | -17.79806 | -75.50580 | 39076 ft | 482 kts | 168° |
| 2026-04-25 01:23 | -17.86331 | -75.49139 | 39079 ft | 482 kts | 168° |
| 2026-04-25 01:23 | -17.92899 | -75.47688 | 39080 ft | 482 kts | 168° |
| 2026-04-25 01:24 | -17.99476 | -75.46233 | 39077 ft | 482 kts | 168° |
| 2026-04-25 01:24 | -18.06053 | -75.44776 | 39081 ft | 482 kts | 168° |
| 2026-04-25 01:25 | -18.12586 | -75.43328 | 39083 ft | 482 kts | 168° |
| 2026-04-25 01:25 | -18.19156 | -75.41869 | 39082 ft | 482 kts | 168° |
| 2026-04-25 01:26 | -18.25731 | -75.40406 | 39087 ft | 482 kts | 168° |
| 2026-04-25 01:26 | -18.32254 | -75.38954 | 39089 ft | 482 kts | 168° |
| 2026-04-25 01:27 | -18.38774 | -75.37319 | 39092 ft | 481 kts | 165° |
| 2026-04-25 01:27 | -18.44130 | -75.35713 | 39096 ft | 481 kts | 163° |
| 2026-04-25 01:28 | -18.53769 | -75.32748 | 39092 ft | 481 kts | 164° |
| 2026-04-25 01:28 | -18.61244 | -75.30484 | 39089 ft | 481 kts | 164° |
| 2026-04-25 01:29 | -18.66643 | -75.28858 | 39095 ft | 481 kts | 164° |
| 2026-04-25 01:29 | -18.74136 | -75.26603 | 39097 ft | 482 kts | 164° |
| 2026-04-25 01:30 | -18.79522 | -75.24980 | 39355 ft | 484 kts | 164° |
| 2026-04-25 01:30 | -18.82743 | -75.24009 | 39668 ft | 480 kts | 164° |
| 2026-04-25 01:30 | -18.85948 | -75.23042 | 39962 ft | 478 kts | 164° |
| 2026-04-25 01:31 | -18.89139 | -75.22079 | 40172 ft | 477 kts | 164° |
| 2026-04-25 01:31 | -18.92329 | -75.21116 | 40367 ft | 477 kts | 164° |
| 2026-04-25 01:31 | -18.95527 | -75.20149 | 40556 ft | 476 kts | 165° |
| 2026-04-25 01:31 | -18.98703 | -75.19190 | 40752 ft | 475 kts | 165° |
| 2026-04-25 01:32 | -19.01847 | -75.18239 | 40948 ft | 474 kts | 165° |
| 2026-04-25 01:32 | -19.05021 | -75.17279 | 41093 ft | 473 kts | 165° |
| 2026-04-25 01:32 | -19.11382 | -75.15354 | 41100 ft | 476 kts | 165° |
| 2026-04-25 01:33 | -19.17747 | -75.13426 | 41095 ft | 475 kts | 165° |
| 2026-04-25 01:33 | -19.24110 | -75.11497 | 41104 ft | 474 kts | 165° |
| 2026-04-25 01:34 | -19.30409 | -75.09585 | 41102 ft | 473 kts | 165° |
| 2026-04-25 01:34 | -19.36732 | -75.07666 | 41103 ft | 473 kts | 165° |
| 2026-04-25 01:35 | -19.43064 | -75.05742 | 41104 ft | 473 kts | 165° |
| 2026-04-25 01:35 | -19.49397 | -75.03815 | 41107 ft | 473 kts | 165° |
| 2026-04-25 01:36 | -19.55735 | -75.01887 | 41106 ft | 474 kts | 165° |
| 2026-04-25 01:36 | -19.62052 | -74.99962 | 41106 ft | 475 kts | 165° |
| 2026-04-25 01:37 | -19.68408 | -74.98024 | 41108 ft | 476 kts | 165° |
| 2026-04-25 01:37 | -19.74801 | -74.96074 | 41110 ft | 477 kts | 165° |
| 2026-04-25 01:38 | -19.81135 | -74.94139 | 41110 ft | 477 kts | 165° |
| 2026-04-25 01:38 | -19.87536 | -74.92183 | 41107 ft | 478 kts | 165° |
| 2026-04-25 01:39 | -19.93918 | -74.90231 | 41110 ft | 478 kts | 165° |
| 2026-04-25 01:39 | -20.00335 | -74.88266 | 41106 ft | 478 kts | 166° |
| 2026-04-25 01:40 | -20.06686 | -74.86320 | 41109 ft | 478 kts | 166° |
| 2026-04-25 01:40 | -20.13089 | -74.84356 | 41113 ft | 478 kts | 166° |
| 2026-04-25 01:41 | -20.19481 | -74.82394 | 41110 ft | 478 kts | 166° |
| 2026-04-25 01:41 | -20.25881 | -74.80428 | 41108 ft | 477 kts | 166° |
| 2026-04-25 01:42 | -20.32223 | -74.78478 | 41108 ft | 477 kts | 166° |
| 2026-04-25 01:42 | -20.38609 | -74.76513 | 41110 ft | 477 kts | 166° |
| 2026-04-25 01:43 | -20.44978 | -74.74550 | 41114 ft | 477 kts | 166° |
| 2026-04-25 01:43 | -20.51372 | -74.72579 | 41113 ft | 477 kts | 166° |
| 2026-04-25 01:44 | -20.57696 | -74.70628 | 41110 ft | 477 kts | 166° |
| 2026-04-25 01:44 | -20.64085 | -74.68654 | 41110 ft | 477 kts | 166° |
| 2026-04-25 01:45 | -20.70452 | -74.66686 | 41112 ft | 477 kts | 166° |
| 2026-04-25 01:45 | -20.76849 | -74.64706 | 41118 ft | 477 kts | 166° |
| 2026-04-25 01:46 | -20.83226 | -74.62731 | 41116 ft | 478 kts | 166° |
| 2026-04-25 01:46 | -20.89622 | -74.60747 | 41112 ft | 478 kts | 166° |
| 2026-04-25 01:47 | -20.96010 | -74.58764 | 41112 ft | 478 kts | 167° |
| 2026-04-25 01:47 | -21.02407 | -74.56775 | 41115 ft | 478 kts | 167° |
| 2026-04-25 01:48 | -21.08802 | -74.54783 | 41116 ft | 479 kts | 167° |
| 2026-04-25 01:48 | -21.15155 | -74.52802 | 41114 ft | 479 kts | 167° |
| 2026-04-25 01:49 | -21.21529 | -74.50823 | 41113 ft | 478 kts | 167° |
| 2026-04-25 01:49 | -21.27936 | -74.48841 | 41115 ft | 478 kts | 167° |
| 2026-04-25 01:50 | -21.34330 | -74.46854 | 41115 ft | 478 kts | 167° |
| 2026-04-25 01:50 | -21.40718 | -74.44861 | 41111 ft | 478 kts | 167° |
| 2026-04-25 01:51 | -21.47106 | -74.42865 | 41111 ft | 478 kts | 167° |
| 2026-04-25 01:51 | -21.53496 | -74.40866 | 41114 ft | 477 kts | 167° |
| 2026-04-25 01:52 | -21.59832 | -74.38883 | 41114 ft | 477 kts | 168° |
| 2026-04-25 01:52 | -21.66217 | -74.36883 | 41112 ft | 477 kts | 168° |
| 2026-04-25 01:53 | -21.72588 | -74.34885 | 41114 ft | 477 kts | 168° |
| 2026-04-25 01:53 | -21.78969 | -74.32882 | 41114 ft | 477 kts | 168° |
| 2026-04-25 01:54 | -21.85305 | -74.30892 | 41115 ft | 477 kts | 168° |
| 2026-04-25 01:54 | -21.91679 | -74.28888 | 41115 ft | 477 kts | 168° |
| 2026-04-25 01:55 | -21.98049 | -74.26883 | 41116 ft | 477 kts | 168° |
| 2026-04-25 01:55 | -22.04415 | -74.24877 | 41115 ft | 477 kts | 168° |
| 2026-04-25 01:56 | -22.10760 | -74.22876 | 41116 ft | 477 kts | 168° |
| 2026-04-25 01:56 | -22.17149 | -74.20860 | 41112 ft | 478 kts | 168° |
| 2026-04-25 01:57 | -22.26732 | -74.17832 | 41115 ft | 478 kts | 168° |
| 2026-04-25 01:58 | -22.33120 | -74.15811 | 41113 ft | 478 kts | 168° |
| 2026-04-25 01:58 | -22.39462 | -74.13802 | 41118 ft | 478 kts | 168° |
| 2026-04-25 01:59 | -22.45876 | -74.11769 | 41118 ft | 479 kts | 168° |
| 2026-04-25 01:59 | -22.52236 | -74.09751 | 41113 ft | 479 kts | 168° |
| 2026-04-25 02:00 | -22.58640 | -74.07717 | 41117 ft | 479 kts | 168° |
| 2026-04-25 02:00 | -22.65039 | -74.05683 | 41109 ft | 479 kts | 168° |
| 2026-04-25 02:01 | -22.71448 | -74.03643 | 41123 ft | 480 kts | 168° |
| 2026-04-25 02:01 | -22.77864 | -74.01673 | 41126 ft | 478 kts | 173° |
| 2026-04-25 02:02 | -22.84381 | -74.00398 | 41123 ft | 475 kts | 177° |
| 2026-04-25 02:02 | -22.90921 | -73.99347 | 41123 ft | 475 kts | 177° |
| 2026-04-25 02:03 | -22.97421 | -73.98237 | 41124 ft | 475 kts | 176° |
| 2026-04-25 02:03 | -23.03942 | -73.97056 | 41120 ft | 475 kts | 176° |
| 2026-04-25 02:04 | -23.10456 | -73.95853 | 41123 ft | 475 kts | 176° |
| 2026-04-25 02:04 | -23.16979 | -73.94647 | 41125 ft | 474 kts | 176° |
| 2026-04-25 02:05 | -23.23486 | -73.93446 | 41124 ft | 474 kts | 176° |
| 2026-04-25 02:05 | -23.29985 | -73.92247 | 41126 ft | 473 kts | 176° |
| 2026-04-25 02:06 | -23.36428 | -73.91058 | 41124 ft | 472 kts | 176° |
| 2026-04-25 02:06 | -23.42902 | -73.89861 | 41121 ft | 471 kts | 176° |
| 2026-04-25 02:07 | -23.49367 | -73.88665 | 41123 ft | 470 kts | 176° |
| 2026-04-25 02:07 | -23.55829 | -73.87468 | 41117 ft | 470 kts | 176° |
| 2026-04-25 02:08 | -23.62263 | -73.86274 | 41126 ft | 469 kts | 176° |
| 2026-04-25 02:08 | -23.68713 | -73.85077 | 41125 ft | 469 kts | 177° |
| 2026-04-25 02:09 | -23.75107 | -73.83888 | 41128 ft | 469 kts | 177° |
| 2026-04-25 02:09 | -23.81551 | -73.82689 | 41126 ft | 469 kts | 177° |
| 2026-04-25 02:10 | -23.87991 | -73.81488 | 41124 ft | 470 kts | 177° |
| 2026-04-25 02:10 | -23.94447 | -73.80280 | 41127 ft | 471 kts | 177° |
| 2026-04-25 02:11 | -24.00907 | -73.79070 | 41122 ft | 472 kts | 177° |
| 2026-04-25 02:11 | -24.07395 | -73.77860 | 41123 ft | 472 kts | 177° |
| 2026-04-25 02:12 | -24.13838 | -73.76664 | 41125 ft | 473 kts | 177° |
| 2026-04-25 02:12 | -24.20334 | -73.75450 | 41127 ft | 473 kts | 177° |
| 2026-04-25 02:13 | -24.26827 | -73.74230 | 41127 ft | 474 kts | 177° |
| 2026-04-25 02:13 | -24.33329 | -73.73004 | 41125 ft | 473 kts | 178° |
| 2026-04-25 02:14 | -24.39817 | -73.71780 | 41128 ft | 473 kts | 178° |
| 2026-04-25 02:14 | -24.46274 | -73.70560 | 41127 ft | 473 kts | 178° |
| 2026-04-25 02:15 | -24.52764 | -73.69334 | 41126 ft | 472 kts | 178° |
| 2026-04-25 02:15 | -24.59249 | -73.68107 | 41126 ft | 471 kts | 178° |
| 2026-04-25 02:16 | -24.65664 | -73.66892 | 41126 ft | 471 kts | 178° |
| 2026-04-25 02:16 | -24.72131 | -73.65666 | 41128 ft | 470 kts | 178° |
| 2026-04-25 02:17 | -24.78578 | -73.64442 | 41131 ft | 470 kts | 178° |
| 2026-04-25 02:17 | -24.83939 | -73.63424 | 41127 ft | 470 kts | 178° |
| 2026-04-25 02:18 | -24.90377 | -73.62200 | 41130 ft | 470 kts | 178° |
| 2026-04-25 02:18 | -24.96830 | -73.60972 | 41131 ft | 470 kts | 178° |
| 2026-04-25 02:19 | -25.04328 | -73.59621 | 41127 ft | 467 kts | 182° |
| 2026-04-25 02:19 | -25.09691 | -73.59127 | 41137 ft | 463 kts | 185° |
| 2026-04-25 02:20 | -25.16132 | -73.58720 | 41135 ft | 464 kts | 185° |
| 2026-04-25 02:20 | -25.22601 | -73.58267 | 41134 ft | 465 kts | 185° |
| 2026-04-25 02:21 | -25.29026 | -73.57758 | 41129 ft | 466 kts | 185° |
| 2026-04-25 02:21 | -25.35503 | -73.57220 | 41136 ft | 466 kts | 185° |
| 2026-04-25 02:22 | -25.41968 | -73.56680 | 41138 ft | 467 kts | 185° |
| 2026-04-25 02:22 | -25.48457 | -73.56139 | 41133 ft | 467 kts | 185° |
| 2026-04-25 02:23 | -25.54945 | -73.55599 | 41135 ft | 467 kts | 185° |
| 2026-04-25 02:23 | -25.61436 | -73.55059 | 41136 ft | 467 kts | 185° |
| 2026-04-25 02:24 | -25.67871 | -73.54523 | 41138 ft | 466 kts | 185° |
| 2026-04-25 02:24 | -25.74368 | -73.53981 | 41140 ft | 466 kts | 185° |
| 2026-04-25 02:25 | -25.80787 | -73.53445 | 41139 ft | 465 kts | 185° |
| 2026-04-25 02:25 | -25.87258 | -73.52904 | 41141 ft | 465 kts | 185° |
| 2026-04-25 02:26 | -25.93706 | -73.52364 | 41147 ft | 464 kts | 185° |
| 2026-04-25 02:26 | -26.00128 | -73.51827 | 41141 ft | 464 kts | 185° |
| 2026-04-25 02:27 | -26.06568 | -73.51287 | 41140 ft | 463 kts | 185° |
| 2026-04-25 02:27 | -26.13008 | -73.50746 | 41143 ft | 463 kts | 185° |
| 2026-04-25 02:28 | -26.19435 | -73.50206 | 41142 ft | 463 kts | 185° |
| 2026-04-25 02:28 | -26.25854 | -73.49666 | 41142 ft | 462 kts | 185° |
| 2026-04-25 02:29 | -26.32248 | -73.49128 | 41141 ft | 463 kts | 185° |
| 2026-04-25 02:29 | -26.38673 | -73.48586 | 41145 ft | 463 kts | 185° |
| 2026-04-25 02:30 | -26.45118 | -73.48043 | 41147 ft | 464 kts | 186° |
| 2026-04-25 02:30 | -26.51564 | -73.47498 | 41150 ft | 464 kts | 186° |
| 2026-04-25 02:31 | -26.57974 | -73.46956 | 41151 ft | 465 kts | 186° |
| 2026-04-25 02:31 | -26.64450 | -73.46408 | 41149 ft | 466 kts | 186° |
| 2026-04-25 02:32 | -26.70932 | -73.45858 | 41152 ft | 467 kts | 186° |
| 2026-04-25 02:32 | -26.77416 | -73.45307 | 41151 ft | 468 kts | 186° |
| 2026-04-25 02:33 | -26.83915 | -73.44754 | 41150 ft | 468 kts | 186° |
| 2026-04-25 02:33 | -26.90367 | -73.44204 | 41148 ft | 468 kts | 186° |
| 2026-04-25 02:34 | -26.96882 | -73.43648 | 41150 ft | 468 kts | 186° |
| 2026-04-25 02:34 | -27.03368 | -73.43094 | 41148 ft | 467 kts | 186° |
| 2026-04-25 02:35 | -27.09848 | -73.42540 | 41152 ft | 467 kts | 186° |
| 2026-04-25 02:35 | -27.16313 | -73.41987 | 41148 ft | 466 kts | 186° |
| 2026-04-25 02:36 | -27.22756 | -73.41434 | 41158 ft | 465 kts | 187° |
| 2026-04-25 02:36 | -27.29201 | -73.40881 | 41157 ft | 464 kts | 187° |
| 2026-04-25 02:37 | -27.35649 | -73.40327 | 41159 ft | 464 kts | 187° |
| 2026-04-25 02:37 | -27.42087 | -73.39772 | 41156 ft | 463 kts | 187° |
| 2026-04-25 02:38 | -27.48482 | -73.39220 | 41154 ft | 463 kts | 187° |
| 2026-04-25 02:38 | -27.54898 | -73.38663 | 41157 ft | 463 kts | 187° |
| 2026-04-25 02:39 | -27.61329 | -73.38103 | 41161 ft | 462 kts | 187° |
| 2026-04-25 02:39 | -27.67746 | -73.37552 | 41155 ft | 463 kts | 187° |
| 2026-04-25 02:40 | -27.74142 | -73.37010 | 41160 ft | 463 kts | 187° |
| 2026-04-25 02:40 | -27.80566 | -73.36459 | 41160 ft | 464 kts | 187° |
| 2026-04-25 02:41 | -27.87026 | -73.35899 | 41163 ft | 464 kts | 187° |
| 2026-04-25 02:41 | -27.93473 | -73.35337 | 41166 ft | 465 kts | 187° |
| 2026-04-25 02:42 | -27.99901 | -73.34776 | 41168 ft | 466 kts | 187° |
| 2026-04-25 02:42 | -28.06364 | -73.34212 | 41162 ft | 466 kts | 187° |
| 2026-04-25 02:43 | -28.12857 | -73.33644 | 41166 ft | 467 kts | 188° |
| 2026-04-25 02:43 | -28.19336 | -73.33076 | 41161 ft | 467 kts | 188° |
| 2026-04-25 02:44 | -28.25776 | -73.32511 | 41164 ft | 467 kts | 188° |
| 2026-04-25 02:44 | -28.32246 | -73.31942 | 41161 ft | 467 kts | 188° |
| 2026-04-25 02:45 | -28.38736 | -73.31370 | 41164 ft | 466 kts | 188° |
| 2026-04-25 02:45 | -28.45218 | -73.30798 | 41166 ft | 466 kts | 188° |
| 2026-04-25 02:46 | -28.51686 | -73.30226 | 41167 ft | 466 kts | 188° |
| 2026-04-25 02:46 | -28.58117 | -73.29652 | 41163 ft | 465 kts | 188° |
| 2026-04-25 02:47 | -28.64574 | -73.29081 | 41170 ft | 464 kts | 188° |
| 2026-04-25 02:48 | -28.76872 | -73.28013 | 41169 ft | 463 kts | 188° |
| 2026-04-25 02:48 | -28.83296 | -73.27448 | 41167 ft | 462 kts | 188° |
| 2026-04-25 02:49 | -28.89708 | -73.26880 | 41169 ft | 462 kts | 188° |
| 2026-04-25 02:49 | -28.96085 | -73.26313 | 41171 ft | 461 kts | 188° |
| 2026-04-25 02:50 | -29.02475 | -73.25745 | 41172 ft | 461 kts | 188° |
| 2026-04-25 02:50 | -29.08884 | -73.25174 | 41176 ft | 460 kts | 188° |
| 2026-04-25 02:51 | -29.15268 | -73.24605 | 41175 ft | 460 kts | 189° |
| 2026-04-25 02:51 | -29.21662 | -73.24035 | 41178 ft | 460 kts | 189° |
| 2026-04-25 02:52 | -29.28062 | -73.23462 | 41181 ft | 460 kts | 189° |
| 2026-04-25 02:52 | -29.34412 | -73.22893 | 41180 ft | 461 kts | 189° |
| 2026-04-25 02:53 | -29.40813 | -73.22319 | 41179 ft | 461 kts | 189° |
| 2026-04-25 02:53 | -29.47209 | -73.21743 | 41179 ft | 461 kts | 189° |
| 2026-04-25 02:54 | -29.53619 | -73.21163 | 41185 ft | 461 kts | 189° |
| 2026-04-25 02:54 | -29.60018 | -73.20581 | 41185 ft | 461 kts | 189° |
| 2026-04-25 02:55 | -29.66428 | -73.20005 | 41188 ft | 462 kts | 189° |
| 2026-04-25 02:55 | -29.72800 | -73.19444 | 41187 ft | 462 kts | 189° |
| 2026-04-25 02:56 | -29.79209 | -73.18874 | 41188 ft | 462 kts | 189° |
| 2026-04-25 02:56 | -29.85617 | -73.18296 | 41189 ft | 462 kts | 189° |
| 2026-04-25 02:57 | -29.92039 | -73.17714 | 41184 ft | 462 kts | 189° |
| 2026-04-25 02:57 | -29.98464 | -73.17130 | 41187 ft | 462 kts | 189° |
| 2026-04-25 02:58 | -30.04866 | -73.16548 | 41190 ft | 461 kts | 189° |
| 2026-04-25 02:58 | -30.11224 | -73.15970 | 41191 ft | 461 kts | 189° |
| 2026-04-25 02:59 | -30.17613 | -73.15388 | 41189 ft | 460 kts | 189° |
| 2026-04-25 02:59 | -30.23999 | -73.14804 | 41195 ft | 459 kts | 189° |
| 2026-04-25 03:00 | -30.30370 | -73.14221 | 41190 ft | 459 kts | 189° |
| 2026-04-25 03:00 | -30.36685 | -73.13640 | 41186 ft | 458 kts | 189° |
| 2026-04-25 03:01 | -30.43052 | -73.13053 | 41195 ft | 457 kts | 190° |
| 2026-04-25 03:01 | -30.49380 | -73.12476 | 41202 ft | 457 kts | 190° |
| 2026-04-25 03:02 | -30.55729 | -73.11906 | 41202 ft | 456 kts | 190° |
| 2026-04-25 03:02 | -30.62055 | -73.11332 | 41199 ft | 456 kts | 190° |
| 2026-04-25 03:03 | -30.68390 | -73.10751 | 41200 ft | 456 kts | 190° |
| 2026-04-25 03:03 | -30.74665 | -73.10173 | 41200 ft | 455 kts | 190° |
| 2026-04-25 03:04 | -30.80982 | -73.09590 | 41202 ft | 455 kts | 190° |
| 2026-04-25 03:04 | -30.87288 | -73.09008 | 41206 ft | 455 kts | 190° |
| 2026-04-25 03:05 | -30.96772 | -73.08129 | 41205 ft | 454 kts | 190° |
| 2026-04-25 03:05 | -31.03078 | -73.07544 | 41208 ft | 454 kts | 190° |
| 2026-04-25 03:06 | -31.09372 | -73.06958 | 41212 ft | 454 kts | 190° |
| 2026-04-25 03:06 | -31.15658 | -73.06370 | 41214 ft | 453 kts | 190° |
| 2026-04-25 03:07 | -31.21909 | -73.05784 | 41213 ft | 453 kts | 190° |
| 2026-04-25 03:07 | -31.28194 | -73.05202 | 41210 ft | 453 kts | 190° |
| 2026-04-25 03:08 | -31.34478 | -73.04627 | 41215 ft | 452 kts | 190° |
| 2026-04-25 03:08 | -31.40740 | -73.04048 | 41212 ft | 452 kts | 190° |
| 2026-04-25 03:09 | -31.47000 | -73.03463 | 41216 ft | 452 kts | 190° |
| 2026-04-25 03:09 | -31.53262 | -73.02875 | 41216 ft | 451 kts | 190° |
| 2026-04-25 03:10 | -31.59533 | -73.02286 | 41215 ft | 451 kts | 190° |
| 2026-04-25 03:10 | -31.65743 | -73.01700 | 41216 ft | 451 kts | 189° |
| 2026-04-25 03:11 | -31.72011 | -73.01105 | 41220 ft | 451 kts | 189° |
| 2026-04-25 03:11 | -31.78268 | -73.00515 | 41221 ft | 451 kts | 189° |
| 2026-04-25 03:12 | -31.84463 | -72.99938 | 41227 ft | 450 kts | 189° |
| 2026-04-25 03:12 | -31.90712 | -72.99358 | 41218 ft | 450 kts | 189° |
| 2026-04-25 03:13 | -31.96975 | -72.98769 | 41221 ft | 450 kts | 189° |
| 2026-04-25 03:13 | -32.03226 | -72.98177 | 41222 ft | 450 kts | 189° |
| 2026-04-25 03:14 | -32.09480 | -72.97582 | 41229 ft | 450 kts | 189° |
| 2026-04-25 03:14 | -32.15719 | -72.96988 | 41231 ft | 450 kts | 189° |
| 2026-04-25 03:15 | -32.21983 | -72.96388 | 41229 ft | 451 kts | 189° |
| 2026-04-25 03:15 | -32.28185 | -72.95793 | 41229 ft | 450 kts | 188° |
| 2026-04-25 03:16 | -32.34466 | -72.95197 | 41233 ft | 450 kts | 188° |
| 2026-04-25 03:16 | -32.40673 | -72.94618 | 41236 ft | 450 kts | 188° |
| 2026-04-25 03:17 | -32.46940 | -72.94025 | 41234 ft | 450 kts | 188° |
| 2026-04-25 03:17 | -32.53180 | -72.93429 | 41239 ft | 451 kts | 188° |
| 2026-04-25 03:18 | -32.59449 | -72.92827 | 41236 ft | 451 kts | 188° |
| 2026-04-25 03:18 | -32.65652 | -72.92231 | 41239 ft | 451 kts | 188° |
| 2026-04-25 03:19 | -32.71930 | -72.91626 | 41240 ft | 451 kts | 188° |
| 2026-04-25 03:19 | -32.78178 | -72.91022 | 41242 ft | 451 kts | 188° |
| 2026-04-25 03:20 | -32.84441 | -72.90414 | 41247 ft | 451 kts | 187° |
| 2026-04-25 03:20 | -32.90661 | -72.89809 | 41246 ft | 450 kts | 187° |
| 2026-04-25 03:21 | -32.96910 | -72.89210 | 41242 ft | 450 kts | 187° |
| 2026-04-25 03:21 | -33.03164 | -72.88618 | 41243 ft | 450 kts | 187° |
| 2026-04-25 03:22 | -33.09394 | -72.88021 | 41251 ft | 450 kts | 187° |
| 2026-04-25 03:22 | -33.15642 | -72.87416 | 41254 ft | 450 kts | 187° |
| 2026-04-25 03:23 | -33.21894 | -72.86808 | 41254 ft | 450 kts | 187° |
| 2026-04-25 03:23 | -33.28144 | -72.86199 | 41249 ft | 450 kts | 187° |
| 2026-04-25 03:24 | -33.34347 | -72.85594 | 41257 ft | 450 kts | 187° |
| 2026-04-25 03:24 | -33.40593 | -72.84984 | 41254 ft | 450 kts | 187° |
| 2026-04-25 03:25 | -33.46844 | -72.84372 | 41257 ft | 450 kts | 187° |
| 2026-04-25 03:25 | -33.53090 | -72.83759 | 41261 ft | 450 kts | 187° |
| 2026-04-25 03:26 | -33.59290 | -72.83149 | 41261 ft | 449 kts | 187° |
| 2026-04-25 03:26 | -33.65523 | -72.82533 | 41259 ft | 449 kts | 186° |
| 2026-04-25 03:27 | -33.71754 | -72.81915 | 41262 ft | 449 kts | 186° |
| 2026-04-25 03:27 | -33.77989 | -72.81303 | 41262 ft | 448 kts | 187° |
| 2026-04-25 03:28 | -33.84203 | -72.80705 | 41267 ft | 448 kts | 186° |
| 2026-04-25 03:28 | -33.89382 | -72.80203 | 41264 ft | 448 kts | 186° |
| 2026-04-25 03:29 | -33.96613 | -72.79492 | 41260 ft | 448 kts | 186° |
| 2026-04-25 03:29 | -34.01826 | -72.78977 | 41260 ft | 448 kts | 186° |
| 2026-04-25 03:30 | -34.07999 | -72.78365 | 41260 ft | 447 kts | 186° |
| 2026-04-25 03:30 | -34.14197 | -72.77750 | 41266 ft | 447 kts | 186° |
| 2026-04-25 03:31 | -34.20406 | -72.77133 | 41269 ft | 447 kts | 186° |
| 2026-04-25 03:31 | -34.26613 | -72.76516 | 41267 ft | 447 kts | 186° |
| 2026-04-25 03:32 | -34.32807 | -72.75898 | 41270 ft | 446 kts | 186° |
| 2026-04-25 03:32 | -34.38970 | -72.75284 | 41272 ft | 446 kts | 186° |
| 2026-04-25 03:33 | -34.45163 | -72.74665 | 41272 ft | 446 kts | 186° |
| 2026-04-25 03:33 | -34.51349 | -72.74045 | 41274 ft | 446 kts | 186° |
| 2026-04-25 03:34 | -34.57537 | -72.73425 | 41272 ft | 445 kts | 186° |
| 2026-04-25 03:34 | -34.63678 | -72.72809 | 41273 ft | 445 kts | 186° |
| 2026-04-25 03:35 | -34.69860 | -72.72187 | 41272 ft | 445 kts | 186° |
| 2026-04-25 03:35 | -34.76025 | -72.71566 | 41277 ft | 445 kts | 186° |
| 2026-04-25 03:36 | -34.82194 | -72.70944 | 41278 ft | 445 kts | 186° |
| 2026-04-25 03:36 | -34.88371 | -72.70321 | 41228 ft | 446 kts | 186° |
| 2026-04-25 03:37 | -34.91499 | -72.70012 | 40621 ft | 454 kts | 186° |
| 2026-04-25 03:37 | -34.94605 | -72.69699 | 40014 ft | 452 kts | 186° |
| 2026-04-25 03:37 | -34.97740 | -72.69378 | 39349 ft | 450 kts | 186° |
| 2026-04-25 03:37 | -35.00856 | -72.69058 | 38543 ft | 450 kts | 186° |
| 2026-04-25 03:38 | -35.03971 | -72.68738 | 37757 ft | 448 kts | 186° |
| 2026-04-25 03:38 | -35.07073 | -72.68420 | 36975 ft | 446 kts | 186° |
| 2026-04-25 03:38 | -35.10168 | -72.68104 | 36206 ft | 445 kts | 186° |
| 2026-04-25 03:38 | -35.13253 | -72.67790 | 35349 ft | 445 kts | 186° |
| 2026-04-25 03:39 | -35.16353 | -72.67477 | 34486 ft | 446 kts | 186° |
| 2026-04-25 03:39 | -35.19440 | -72.67164 | 33566 ft | 446 kts | 186° |
| 2026-04-25 03:39 | -35.22512 | -72.66846 | 32907 ft | 439 kts | 186° |
| 2026-04-25 03:39 | -35.25542 | -72.66531 | 32263 ft | 433 kts | 186° |
| 2026-04-25 03:40 | -35.28528 | -72.66221 | 31627 ft | 427 kts | 186° |
| 2026-04-25 03:40 | -35.31466 | -72.65919 | 31016 ft | 422 kts | 186° |
| 2026-04-25 03:40 | -35.34349 | -72.65624 | 30420 ft | 417 kts | 186° |
| 2026-04-25 03:40 | -35.37227 | -72.65330 | 29726 ft | 413 kts | 186° |
| 2026-04-25 03:41 | -35.40073 | -72.65039 | 29106 ft | 407 kts | 186° |
| 2026-04-25 03:41 | -35.42878 | -72.64752 | 28501 ft | 402 kts | 186° |
| 2026-04-25 03:41 | -35.45651 | -72.64468 | 27898 ft | 397 kts | 186° |
| 2026-04-25 03:41 | -35.48387 | -72.64188 | 27312 ft | 393 kts | 185° |
| 2026-04-25 03:42 | -35.51105 | -72.63911 | 26726 ft | 389 kts | 185° |
| 2026-04-25 03:42 | -35.53788 | -72.63636 | 26144 ft | 385 kts | 185° |
| 2026-04-25 03:42 | -35.56452 | -72.63363 | 25589 ft | 382 kts | 185° |
| 2026-04-25 03:42 | -35.59097 | -72.63092 | 25033 ft | 380 kts | 184° |
| 2026-04-25 03:43 | -35.61684 | -72.62826 | 24481 ft | 377 kts | 184° |
| 2026-04-25 03:43 | -35.64291 | -72.62558 | 23915 ft | 376 kts | 183° |
| 2026-04-25 03:43 | -35.66898 | -72.62289 | 23275 ft | 374 kts | 183° |
| 2026-04-25 03:43 | -35.69484 | -72.62020 | 22682 ft | 370 kts | 182° |
| 2026-04-25 03:44 | -35.72039 | -72.61753 | 22139 ft | 366 kts | 182° |
| 2026-04-25 03:44 | -35.74554 | -72.61491 | 21596 ft | 362 kts | 182° |
| 2026-04-25 03:44 | -35.77062 | -72.61232 | 21055 ft | 359 kts | 181° |
| 2026-04-25 03:44 | -35.79535 | -72.60978 | 20522 ft | 355 kts | 181° |
| 2026-04-25 03:45 | -35.81982 | -72.60872 | 19988 ft | 347 kts | 191° |
| 2026-04-25 03:45 | -35.84293 | -72.61569 | 19222 ft | 344 kts | 204° |
| 2026-04-25 03:45 | -35.86519 | -72.62615 | 18639 ft | 342 kts | 205° |
| 2026-04-25 03:45 | -35.88721 | -72.63695 | 18030 ft | 339 kts | 205° |
| 2026-04-25 03:46 | -35.90910 | -72.64770 | 17464 ft | 336 kts | 205° |
| 2026-04-25 03:46 | -35.93038 | -72.65806 | 16950 ft | 331 kts | 205° |
| 2026-04-25 03:46 | -35.95182 | -72.66841 | 16419 ft | 328 kts | 204° |
| 2026-04-25 03:46 | -35.97297 | -72.67854 | 15899 ft | 325 kts | 204° |
| 2026-04-25 03:47 | -35.99396 | -72.68856 | 15401 ft | 322 kts | 204° |
| 2026-04-25 03:47 | -36.01481 | -72.69848 | 14896 ft | 320 kts | 204° |
| 2026-04-25 03:47 | -36.03536 | -72.70824 | 14408 ft | 318 kts | 204° |
| 2026-04-25 03:47 | -36.05608 | -72.71809 | 13879 ft | 316 kts | 204° |
| 2026-04-25 03:48 | -36.07656 | -72.72782 | 13335 ft | 314 kts | 204° |
| 2026-04-25 03:48 | -36.09710 | -72.73758 | 12609 ft | 318 kts | 204° |
| 2026-04-25 03:48 | -36.11736 | -72.74721 | 12081 ft | 315 kts | 204° |
| 2026-04-25 03:48 | -36.13776 | -72.75690 | 11552 ft | 313 kts | 204° |
| 2026-04-25 03:49 | -36.15804 | -72.76654 | 11033 ft | 310 kts | 203° |
| 2026-04-25 03:49 | -36.17816 | -72.77611 | 10540 ft | 308 kts | 203° |
| 2026-04-25 03:49 | -36.19775 | -72.78543 | 10357 ft | 295 kts | 203° |
| 2026-04-25 03:49 | -36.21658 | -72.79439 | 10207 ft | 283 kts | 203° |
| 2026-04-25 03:50 | -36.23453 | -72.80294 | 10073 ft | 271 kts | 204° |
| 2026-04-25 03:50 | -36.25185 | -72.81120 | 9832 ft | 264 kts | 203° |
| 2026-04-25 03:50 | -36.26882 | -72.81931 | 9497 ft | 260 kts | 203° |
| 2026-04-25 03:50 | -36.28572 | -72.82737 | 9147 ft | 259 kts | 203° |
| 2026-04-25 03:51 | -36.30228 | -72.83527 | 8802 ft | 257 kts | 203° |
| 2026-04-25 03:51 | -36.31859 | -72.84305 | 8671 ft | 242 kts | 203° |
| 2026-04-25 03:51 | -36.33382 | -72.85033 | 8543 ft | 226 kts | 203° |
| 2026-04-25 03:51 | -36.34800 | -72.85712 | 8427 ft | 211 kts | 203° |
| 2026-04-25 03:52 | -36.36121 | -72.86347 | 8334 ft | 196 kts | 204° |
| 2026-04-25 03:52 | -36.37365 | -72.86855 | 8230 ft | 181 kts | 198° |
| 2026-04-25 03:52 | -36.38528 | -72.87227 | 8125 ft | 165 kts | 198° |
| 2026-04-25 03:52 | -36.39616 | -72.87568 | 7822 ft | 162 kts | 197° |
| 2026-04-25 03:53 | -36.40719 | -72.87915 | 7410 ft | 165 kts | 197° |
| 2026-04-25 03:53 | -36.41826 | -72.88263 | 7016 ft | 167 kts | 197° |
| 2026-04-25 03:53 | -36.42942 | -72.88614 | 6727 ft | 162 kts | 196° |
| 2026-04-25 03:53 | -36.44027 | -72.88957 | 6400 ft | 160 kts | 196° |
| 2026-04-25 03:54 | -36.45103 | -72.89298 | 6054 ft | 159 kts | 196° |
| 2026-04-25 03:54 | -36.46177 | -72.89640 | 5698 ft | 159 kts | 196° |
| 2026-04-25 03:54 | -36.47246 | -72.89982 | 5352 ft | 158 kts | 195° |
| 2026-04-25 03:54 | -36.48305 | -72.90321 | 5066 ft | 156 kts | 195° |
| 2026-04-25 03:55 | -36.49353 | -72.90657 | 4856 ft | 156 kts | 195° |
| 2026-04-25 03:55 | -36.50410 | -72.90996 | 4635 ft | 158 kts | 195° |
| 2026-04-25 03:55 | -36.51468 | -72.91344 | 4423 ft | 157 kts | 199° |
| 2026-04-25 03:55 | -36.52466 | -72.91888 | 4212 ft | 157 kts | 205° |
| 2026-04-25 03:56 | -36.53447 | -72.92470 | 4003 ft | 156 kts | 205° |
| 2026-04-25 03:56 | -36.54412 | -72.93041 | 3898 ft | 149 kts | 205° |
| 2026-04-25 03:56 | -36.55351 | -72.93595 | 3815 ft | 151 kts | 205° |
| 2026-04-25 03:56 | -36.56308 | -72.94154 | 3743 ft | 155 kts | 205° |
| 2026-04-25 03:57 | -36.57285 | -72.94724 | 3675 ft | 154 kts | 205° |
| 2026-04-25 03:57 | -36.58258 | -72.95292 | 3602 ft | 154 kts | 205° |
| 2026-04-25 03:57 | -36.59227 | -72.95858 | 3527 ft | 155 kts | 204° |
| 2026-04-25 03:57 | -36.60216 | -72.96430 | 3333 ft | 156 kts | 204° |
| 2026-04-25 03:58 | -36.61161 | -72.96979 | 3313 ft | 142 kts | 204° |
| 2026-04-25 03:58 | -36.62055 | -72.97500 | 3130 ft | 143 kts | 204° |
| 2026-04-25 03:58 | -36.62948 | -72.98017 | 2992 ft | 141 kts | 204° |
| 2026-04-25 03:58 | -36.63864 | -72.98547 | 2798 ft | 153 kts | 203° |
| 2026-04-25 03:59 | -36.64837 | -72.99109 | 2447 ft | 152 kts | 204° |
| 2026-04-25 03:59 | -36.65777 | -72.99656 | 2112 ft | 147 kts | 204° |
| 2026-04-25 03:59 | -36.66663 | -73.00174 | 1992 ft | 133 kts | 204° |
| 2026-04-25 03:59 | -36.67531 | -73.00685 | 1916 ft | 145 kts | 203° |
| 2026-04-25 04:00 | -36.68449 | -73.01215 | 1702 ft | 142 kts | 204° |
| 2026-04-25 04:00 | -36.69326 | -73.01722 | 1485 ft | 136 kts | 204° |
| 2026-04-25 04:00 | -36.70161 | -73.02207 | 1303 ft | 134 kts | 204° |
| 2026-04-25 04:00 | -36.71012 | -73.02700 | 1128 ft | 135 kts | 205° |
| 2026-04-25 04:01 | -36.71862 | -73.03194 | 954 ft | 135 kts | 206° |
| 2026-04-25 04:01 | -36.72710 | -73.03686 | 781 ft | 133 kts | 207° |
| 2026-04-25 04:01 | -36.73546 | -73.04175 | 602 ft | 132 kts | 206° |
| 2026-04-25 04:01 | -36.74388 | -73.04657 | 473 ft | 137 kts | 205° |
| 2026-04-25 04:02 | -36.75287 | -73.05156 | 345 ft | 143 kts | 205° |
| 2026-04-25 04:02 | -36.76183 | -73.05688 | 123 ft | 142 kts | 207° |
| 2026-04-25 04:02 | -36.77016 | -73.06184 | 56 ft | 117 kts | 205° |
| 2026-04-25 04:02 | -36.77618 | -73.06526 | 65 ft | 63 kts | 206° |
| 2026-04-25 04:03 | -36.77862 | -73.06673 | 65 ft | 34 kts | 205° |
| 2026-04-25 04:03 | -36.78064 | -73.06790 | 66 ft | 24 kts | 205° |
| 2026-04-25 04:03 | -36.78146 | -73.06837 | 67 ft | 8 kts | 204° |
| 2026-04-25 04:03 | -36.78198 | -73.06830 | 67 ft | 8 kts | 131° |
| 2026-04-25 04:04 | -36.78234 | -73.06746 | 54 ft | 14 kts | 113° |
| 2026-04-25 04:04 | -36.78239 | -73.06664 | 56 ft | 9 kts | 61° |
| 2026-04-25 04:04 | -36.78187 | -73.06616 | 60 ft | 10 kts | 26° |
| 2026-04-25 04:04 | -36.78122 | -73.06577 | 56 ft | 13 kts | 25° |
| 2026-04-25 04:05 | -36.78038 | -73.06529 | 60 ft | 13 kts | 24° |
| 2026-04-25 04:05 | -36.77963 | -73.06487 | 56 ft | 11 kts | 25° |
| 2026-04-25 04:05 | -36.77895 | -73.06448 | 60 ft | 11 kts | 25° |
| 2026-04-25 04:05 | -36.77830 | -73.06409 | 58 ft | 10 kts | 25° |
| 2026-04-25 04:06 | -36.77763 | -73.06370 | 58 ft | 11 kts | 25° |
| 2026-04-25 04:06 | -36.77693 | -73.06327 | 52 ft | 11 kts | 27° |
| 2026-04-25 04:06 | -36.77627 | -73.06288 | 54 ft | 10 kts | 25° |
| 2026-04-25 04:06 | -36.77575 | -73.06257 | 54 ft | 7 kts | 25° |
| 2026-04-25 04:07 | -36.77528 | -73.06230 | 57 ft | 8 kts | 25° |
| 2026-04-25 04:07 | -36.77508 | -73.06213 | 60 ft | 4 kts | 56° |
| 2026-04-25 04:07 | -36.77510 | -73.06147 | 56 ft | 9 kts | 107° |
| 2026-04-25 04:07 | -36.77538 | -73.06110 | 58 ft | 5 kts | 173° |
| 2026-04-25 04:08 | -36.77570 | -73.06118 | 52 ft | 4 kts | 197° |
| 2026-04-25 04:08 | -36.77601 | -73.06131 | 52 ft | 5 kts | 205° |
| 2026-04-25 04:08 | -36.77619 | -73.06142 | 55 ft | 2 kts | 194° |
| 2026-04-25 04:08 | -36.77643 | -73.06142 | 53 ft | 2 kts | 176° |
| 2026-04-25 04:09 | -36.77658 | -73.06141 | 56 ft | 0 kts | 174° |